KLM523 EHAM-EDDS
Flight info
| Callsign | KLM523 |
|---|---|
| Flight time | 0h 58m |
| Altitude | 35000 |
| Route | EDUPO Z739 MISGO DCT DOJOH DCT DODEN DCT TABUM DCT FOLWU DCT UBENO N850 KRH T128 BADSO BADSO2A |
| Aircraft | A320/M-SDE3FGHIRWY/LB1 |
Departure
| Time | 2026-05-04 16:26 |
|---|---|
| Airport | Amsterdam Airport Schiphol (EHAM) |
Arrival
| Time | 2026-05-04 17:25 |
|---|---|
| Airport | Stuttgart Airport (EDDS) |
| Time | Latitude | Longitude | Altitude | Speed | Heading |
|---|---|---|---|---|---|
| 2026-05-04 15:58 | 52.31230 | 4.76838 | -1 ft | 0 kts | 304° |
| 2026-05-04 16:10 | 52.31218 | 4.76866 | -1 ft | 2 kts | 304° |
| 2026-05-04 16:11 | 52.31192 | 4.76933 | -1 ft | 2 kts | 306° |
| 2026-05-04 16:11 | 52.31181 | 4.76953 | -1 ft | 2 kts | 329° |
| 2026-05-04 16:12 | 52.31167 | 4.76961 | -1 ft | 0 kts | 33° |
| 2026-05-04 16:12 | 52.31268 | 4.77069 | -1 ft | 14 kts | 33° |
| 2026-05-04 16:13 | 52.31465 | 4.77166 | -1 ft | 17 kts | 323° |
| 2026-05-04 16:13 | 52.31479 | 4.76890 | -1 ft | 7 kts | 266° |
| 2026-05-04 16:14 | 52.31473 | 4.76736 | -1 ft | 8 kts | 267° |
| 2026-05-04 16:14 | 52.31466 | 4.76533 | -1 ft | 12 kts | 266° |
| 2026-05-04 16:15 | 52.31451 | 4.76120 | -1 ft | 12 kts | 266° |
| 2026-05-04 16:16 | 52.31441 | 4.75840 | -1 ft | 13 kts | 266° |
| 2026-05-04 16:16 | 52.31425 | 4.75397 | -1 ft | 15 kts | 267° |
| 2026-05-04 16:17 | 52.31412 | 4.75068 | -1 ft | 14 kts | 267° |
| 2026-05-04 16:18 | 52.31399 | 4.74589 | -1 ft | 15 kts | 266° |
| 2026-05-04 16:18 | 52.31393 | 4.74423 | -1 ft | 14 kts | 266° |
| 2026-05-04 16:19 | 52.31649 | 4.74309 | -1 ft | 21 kts | 2° |
| 2026-05-04 16:19 | 52.31910 | 4.74332 | -1 ft | 18 kts | 2° |
| 2026-05-04 16:20 | 52.32039 | 4.73946 | -2 ft | 14 kts | 273° |
| 2026-05-04 16:20 | 52.32051 | 4.73617 | -1 ft | 15 kts | 273° |
| 2026-05-04 16:21 | 52.32222 | 4.73167 | -1 ft | 19 kts | 319° |
| 2026-05-04 16:22 | 52.32440 | 4.72862 | -1 ft | 24 kts | 320° |
| 2026-05-04 16:22 | 52.32748 | 4.72395 | -1 ft | 21 kts | 311° |
| 2026-05-04 16:23 | 52.33032 | 4.71870 | -1 ft | 21 kts | 311° |
| 2026-05-04 16:24 | 52.32976 | 4.71275 | -1 ft | 14 kts | 220° |
| 2026-05-04 16:25 | 52.32865 | 4.71075 | -1 ft | 11 kts | 255° |
| 2026-05-04 16:26 | 52.32941 | 4.70899 | -3 ft | 26 kts | 3° |
| 2026-05-04 16:26 | 52.35721 | 4.71237 | 634 ft | 193 kts | 7° |
| 2026-05-04 16:27 | 52.38729 | 4.71550 | 2187 ft | 240 kts | 2° |
| 2026-05-04 16:28 | 52.43913 | 4.73431 | 5418 ft | 275 kts | 27° |
| 2026-05-04 16:28 | 52.47935 | 4.80155 | 8332 ft | 290 kts | 71° |
| 2026-05-04 16:29 | 52.46600 | 4.93547 | 11489 ft | 346 kts | 133° |
| 2026-05-04 16:30 | 52.40684 | 5.00866 | 14155 ft | 365 kts | 146° |
| 2026-05-04 16:31 | 52.36479 | 5.05734 | 15889 ft | 374 kts | 146° |
| 2026-05-04 16:31 | 52.30609 | 5.14409 | 18400 ft | 389 kts | 133° |
| 2026-05-04 16:32 | 52.25106 | 5.24409 | 20613 ft | 401 kts | 134° |
| 2026-05-04 16:33 | 52.21744 | 5.31814 | 22090 ft | 411 kts | 127° |
| 2026-05-04 16:33 | 52.18430 | 5.39470 | 23682 ft | 421 kts | 128° |
| 2026-05-04 16:34 | 52.15029 | 5.47281 | 24888 ft | 423 kts | 128° |
| 2026-05-04 16:34 | 52.13317 | 5.51195 | 25496 ft | 424 kts | 129° |
| 2026-05-04 16:35 | 52.08152 | 5.62971 | 27103 ft | 430 kts | 129° |
| 2026-05-04 16:35 | 52.02515 | 5.74355 | 28541 ft | 433 kts | 135° |
| 2026-05-04 16:36 | 52.00530 | 5.78054 | 29014 ft | 436 kts | 135° |
| 2026-05-04 16:36 | 51.96527 | 5.85490 | 29870 ft | 440 kts | 135° |
| 2026-05-04 16:37 | 51.92476 | 5.93029 | 30419 ft | 448 kts | 136° |
| 2026-05-04 16:37 | 51.90424 | 5.96859 | 30694 ft | 451 kts | 136° |
| 2026-05-04 16:37 | 51.86296 | 6.04552 | 31285 ft | 452 kts | 136° |
| 2026-05-04 16:38 | 51.82169 | 6.12200 | 32088 ft | 450 kts | 136° |
| 2026-05-04 16:39 | 51.76638 | 6.22307 | 33252 ft | 448 kts | 137° |
| 2026-05-04 16:39 | 51.72517 | 6.29816 | 34065 ft | 446 kts | 137° |
| 2026-05-04 16:40 | 51.68394 | 6.37324 | 34645 ft | 448 kts | 137° |
| 2026-05-04 16:40 | 51.64251 | 6.44828 | 34971 ft | 447 kts | 137° |
| 2026-05-04 16:41 | 51.53958 | 6.63420 | 34981 ft | 445 kts | 137° |
| 2026-05-04 16:43 | 51.43669 | 6.81880 | 34964 ft | 446 kts | 137° |
| 2026-05-04 16:43 | 51.37339 | 6.92762 | 34968 ft | 444 kts | 141° |
| 2026-05-04 16:45 | 51.23944 | 7.13148 | 34992 ft | 442 kts | 141° |
| 2026-05-04 16:46 | 51.12920 | 7.30149 | 34978 ft | 443 kts | 141° |
| 2026-05-04 16:47 | 51.04039 | 7.43706 | 34980 ft | 442 kts | 141° |
| 2026-05-04 16:48 | 50.95146 | 7.57220 | 34970 ft | 442 kts | 141° |
| 2026-05-04 16:49 | 50.86215 | 7.70689 | 34977 ft | 444 kts | 141° |
| 2026-05-04 16:50 | 50.77241 | 7.84148 | 34989 ft | 445 kts | 142° |
| 2026-05-04 16:51 | 50.70473 | 7.94184 | 34988 ft | 445 kts | 142° |
| 2026-05-04 16:52 | 50.61429 | 8.07538 | 34983 ft | 445 kts | 142° |
| 2026-05-04 16:53 | 50.53859 | 8.15739 | 34987 ft | 438 kts | 152° |
| 2026-05-04 16:54 | 50.43606 | 8.26012 | 34992 ft | 438 kts | 152° |
| 2026-05-04 16:55 | 50.28195 | 8.41392 | 34960 ft | 437 kts | 152° |
| 2026-05-04 16:56 | 50.15309 | 8.54009 | 34966 ft | 438 kts | 153° |
| 2026-05-04 16:57 | 50.07535 | 8.61457 | 34950 ft | 434 kts | 158° |
| 2026-05-04 16:58 | 49.98957 | 8.64774 | 34957 ft | 422 kts | 178° |
| 2026-05-04 16:58 | 49.96033 | 8.65256 | 34958 ft | 423 kts | 178° |
| 2026-05-04 17:00 | 49.78484 | 8.68204 | 34977 ft | 423 kts | 178° |
| 2026-05-04 17:01 | 49.63966 | 8.67694 | 34963 ft | 418 kts | 188° |
| 2026-05-04 17:02 | 49.52285 | 8.66117 | 34966 ft | 431 kts | 188° |
| 2026-05-04 17:03 | 49.43487 | 8.64964 | 34976 ft | 420 kts | 188° |
| 2026-05-04 17:03 | 49.34776 | 8.63807 | 34974 ft | 419 kts | 188° |
| 2026-05-04 17:04 | 49.23186 | 8.62068 | 34974 ft | 418 kts | 188° |
| 2026-05-04 17:05 | 49.11565 | 8.60728 | 34916 ft | 421 kts | 183° |
| 2026-05-04 17:06 | 49.05672 | 8.60683 | 32786 ft | 426 kts | 183° |
| 2026-05-04 17:06 | 49.02712 | 8.60661 | 31603 ft | 427 kts | 183° |
| 2026-05-04 17:07 | 48.96884 | 8.60610 | 29280 ft | 408 kts | 182° |
| 2026-05-04 17:07 | 48.95023 | 8.60590 | 28495 ft | 401 kts | 182° |
| 2026-05-04 17:07 | 48.91330 | 8.61294 | 26980 ft | 402 kts | 165° |
| 2026-05-04 17:07 | 48.88774 | 8.63118 | 25894 ft | 413 kts | 149° |
| 2026-05-04 17:08 | 48.86633 | 8.66011 | 24831 ft | 412 kts | 133° |
| 2026-05-04 17:08 | 48.84334 | 8.73903 | 22653 ft | 424 kts | 100° |
| 2026-05-04 17:08 | 48.84374 | 8.78413 | 21706 ft | 431 kts | 83° |
| 2026-05-04 17:09 | 48.84926 | 8.82876 | 20897 ft | 429 kts | 81° |
| 2026-05-04 17:09 | 48.85491 | 8.87320 | 20098 ft | 427 kts | 81° |
| 2026-05-04 17:09 | 48.86051 | 8.91728 | 19332 ft | 424 kts | 81° |
| 2026-05-04 17:10 | 48.87156 | 9.00462 | 17813 ft | 418 kts | 81° |
| 2026-05-04 17:10 | 48.88726 | 9.13021 | 15624 ft | 382 kts | 81° |
| 2026-05-04 17:11 | 48.89210 | 9.16945 | 14884 ft | 383 kts | 81° |
| 2026-05-04 17:11 | 48.89699 | 9.20913 | 14113 ft | 383 kts | 81° |
| 2026-05-04 17:11 | 48.90675 | 9.28895 | 12436 ft | 383 kts | 81° |
| 2026-05-04 17:12 | 48.91155 | 9.32845 | 11613 ft | 381 kts | 82° |
| 2026-05-04 17:12 | 48.90229 | 9.40192 | 10746 ft | 342 kts | 131° |
| 2026-05-04 17:13 | 48.84621 | 9.41607 | 10224 ft | 279 kts | 213° |
| 2026-05-04 17:14 | 48.81832 | 9.34107 | 9708 ft | 281 kts | 250° |
| 2026-05-04 17:14 | 48.81260 | 9.31271 | 9577 ft | 281 kts | 250° |
| 2026-05-04 17:14 | 48.80126 | 9.25607 | 9313 ft | 280 kts | 250° |
| 2026-05-04 17:15 | 48.79561 | 9.22782 | 9179 ft | 280 kts | 250° |
| 2026-05-04 17:15 | 48.78431 | 9.17148 | 8928 ft | 278 kts | 251° |
| 2026-05-04 17:16 | 48.77304 | 9.11532 | 8179 ft | 278 kts | 251° |
| 2026-05-04 17:16 | 48.75138 | 9.03563 | 6656 ft | 272 kts | 231° |
| 2026-05-04 17:17 | 48.73962 | 9.01312 | 6202 ft | 270 kts | 229° |
| 2026-05-04 17:17 | 48.70442 | 8.94936 | 5249 ft | 246 kts | 229° |
| 2026-05-04 17:18 | 48.69380 | 8.93004 | 5141 ft | 233 kts | 230° |
| 2026-05-04 17:18 | 48.67403 | 8.89460 | 4959 ft | 208 kts | 221° |
| 2026-05-04 17:19 | 48.64908 | 8.88283 | 4859 ft | 184 kts | 164° |
| 2026-05-04 17:19 | 48.63302 | 8.90916 | 4766 ft | 178 kts | 97° |
| 2026-05-04 17:20 | 48.63732 | 8.94580 | 4666 ft | 179 kts | 75° |
| 2026-05-04 17:20 | 48.64369 | 8.98027 | 4280 ft | 160 kts | 72° |
| 2026-05-04 17:20 | 48.64669 | 8.99597 | 4069 ft | 151 kts | 71° |
| 2026-05-04 17:21 | 48.65215 | 9.02448 | 3706 ft | 135 kts | 71° |
| 2026-05-04 17:21 | 48.65725 | 9.05107 | 3379 ft | 130 kts | 70° |
| 2026-05-04 17:22 | 48.65972 | 9.06395 | 3205 ft | 129 kts | 70° |
| 2026-05-04 17:22 | 48.66224 | 9.07708 | 3021 ft | 129 kts | 70° |
| 2026-05-04 17:23 | 48.66971 | 9.11612 | 2492 ft | 129 kts | 72° |
| 2026-05-04 17:23 | 48.67218 | 9.12909 | 2319 ft | 127 kts | 71° |
| 2026-05-04 17:23 | 48.67708 | 9.15474 | 1972 ft | 128 kts | 72° |
| 2026-05-04 17:24 | 48.67956 | 9.16754 | 1746 ft | 126 kts | 70° |
| 2026-05-04 17:24 | 48.68605 | 9.20179 | 1340 ft | 126 kts | 68° |
| 2026-05-04 17:25 | 48.68827 | 9.21331 | 1286 ft | 92 kts | 74° |
| 2026-05-04 17:25 | 48.69059 | 9.22586 | 1286 ft | 45 kts | 75° |
| 2026-05-04 17:26 | 48.69262 | 9.23085 | 1288 ft | 17 kts | 36° |
| 2026-05-04 17:26 | 48.69280 | 9.23105 | 1287 ft | 0 kts | 39° |
| 2026-05-04 17:27 | 48.69402 | 9.23114 | 1287 ft | 12 kts | 302° |
| 2026-05-04 17:27 | 48.69366 | 9.22817 | 1286 ft | 18 kts | 253° |
| 2026-05-04 17:28 | 48.69299 | 9.22465 | 1287 ft | 19 kts | 254° |
| 2026-05-04 17:29 | 48.69186 | 9.21873 | 1287 ft | 19 kts | 254° |
| 2026-05-04 17:29 | 48.69093 | 9.21385 | 1287 ft | 16 kts | 253° |
| 2026-05-04 17:30 | 48.68994 | 9.20862 | 1288 ft | 17 kts | 253° |
| 2026-05-04 17:31 | 48.68928 | 9.20511 | 1289 ft | 16 kts | 254° |
| 2026-05-04 17:31 | 48.68835 | 9.20025 | 1286 ft | 13 kts | 254° |
| 2026-05-04 17:32 | 48.68829 | 9.19917 | 1286 ft | 4 kts | 287° |
| 2026-05-04 17:33 | 48.68866 | 9.19703 | 1286 ft | 14 kts | 251° |
| 2026-05-04 17:33 | 48.68843 | 9.19598 | 1290 ft | 3 kts | 253° |
| 2026-05-04 17:34 | 48.68841 | 9.19581 | 1288 ft | 4 kts | 257° |
| 2026-05-04 17:34 | 48.68834 | 9.19536 | 1286 ft | 5 kts | 256° |
| 2026-05-04 17:35 | 48.68870 | 9.19440 | 1286 ft | 4 kts | 344° |
| 2026-05-04 17:35 | 48.68888 | 9.19433 | 1287 ft | 1 kts | 344° |
| 2026-05-04 17:35 | 48.68892 | 9.19431 | 1287 ft | 1 kts | 344° |
| 2026-05-04 17:36 | 48.68895 | 9.19430 | 1287 ft | 0 kts | 344° |